createdAt,value
2018-03-22T00:01:50.917Z,83.42
2018-03-22T00:04:18.490Z,83.69
2018-03-22T00:06:46.042Z,83.91
2018-03-22T00:09:13.556Z,83.92
2018-03-22T00:11:41.187Z,83.79
2018-03-22T00:14:08.695Z,84.00
2018-03-22T00:16:36.238Z,84.22
2018-03-22T00:19:03.754Z,84.06
2018-03-22T00:21:31.257Z,84.13
2018-03-22T00:23:58.766Z,84.12
2018-03-22T00:26:26.301Z,84.17
2018-03-22T00:28:53.853Z,84.15
2018-03-22T00:31:21.403Z,84.09
2018-03-22T00:33:48.998Z,84.57
2018-03-22T00:36:16.502Z,84.93
2018-03-22T00:38:44.018Z,84.75
2018-03-22T00:41:11.645Z,84.98
2018-03-22T00:43:39.186Z,85.51
2018-03-22T00:46:06.749Z,85.54
2018-03-22T00:48:34.329Z,85.47
2018-03-22T00:51:01.895Z,85.56
2018-03-22T00:53:29.437Z,85.72
2018-03-22T00:55:56.941Z,85.85
2018-03-22T00:58:24.464Z,85.81
2018-03-22T01:00:52.004Z,85.78
2018-03-22T01:03:19.578Z,85.98
2018-03-22T01:05:47.121Z,86.26
2018-03-22T01:08:14.689Z,86.14
2018-03-22T01:10:42.250Z,86.01
2018-03-22T01:13:09.793Z,85.97
2018-03-22T01:15:37.290Z,85.98
2018-03-22T01:18:04.864Z,85.90
2018-03-22T01:20:32.417Z,85.80
2018-03-22T01:22:59.995Z,85.72
2018-03-22T01:25:27.561Z,85.93
2018-03-22T01:27:55.065Z,86.24
2018-03-22T01:30:34.382Z,86.32
2018-03-22T01:33:01.889Z,86.31
2018-03-22T01:35:29.479Z,86.33
2018-03-22T01:37:57.033Z,86.24
2018-03-22T01:40:24.606Z,86.16
2018-03-22T01:42:52.224Z,86.22
2018-03-22T01:45:19.724Z,86.21
2018-03-22T01:47:47.264Z,86.27
2018-03-22T01:50:14.810Z,86.13
2018-03-22T01:55:48.501Z,86.05
2018-03-22T01:58:16.133Z,86.19
2018-03-22T02:00:43.815Z,86.18
2018-03-22T02:03:11.324Z,86.20
2018-03-22T02:05:38.874Z,86.72
2018-03-22T02:08:06.404Z,86.54
2018-03-22T02:10:33.969Z,86.73
2018-03-22T02:13:01.529Z,86.63
2018-03-22T02:15:29.149Z,86.63
2018-03-22T02:18:02.065Z,87.24
2018-03-22T02:20:29.609Z,87.24
2018-03-22T02:22:57.113Z,87.41
2018-03-22T02:25:24.624Z,87.39
2018-03-22T02:27:52.265Z,87.31
2018-03-22T02:30:19.834Z,87.22
2018-03-22T02:32:47.595Z,87.33
2018-03-22T02:35:15.225Z,87.24
2018-03-22T02:37:42.766Z,87.12
2018-03-22T02:40:10.288Z,87.02
2018-03-22T02:42:37.809Z,86.99
2018-03-22T02:45:05.377Z,87.08
2018-03-22T02:47:32.982Z,87.23
2018-03-22T02:50:00.577Z,87.15
2018-03-22T02:52:28.255Z,87.05
2018-03-22T02:54:55.764Z,86.97
2018-03-22T02:57:23.308Z,86.93
2018-03-22T02:59:50.848Z,86.86
2018-03-22T03:02:18.741Z,86.84
2018-03-22T03:04:46.397Z,86.75
2018-03-22T03:07:13.981Z,86.70
2018-03-22T03:09:41.529Z,86.61
2018-03-22T03:12:09.053Z,86.55
2018-03-22T03:14:36.574Z,86.46
2018-03-22T03:17:04.109Z,86.35
2018-03-22T03:19:31.658Z,86.25
2018-03-22T03:21:59.335Z,86.19
2018-03-22T03:24:26.889Z,86.13
2018-03-22T03:26:55.133Z,86.07
2018-03-22T03:29:22.673Z,86.04
2018-03-22T03:31:50.185Z,85.98
2018-03-22T03:34:17.704Z,85.96
2018-03-22T03:36:45.353Z,85.98
2018-03-22T03:39:12.929Z,85.90
2018-03-22T03:41:40.529Z,85.81
2018-03-22T03:44:08.089Z,85.75
2018-03-22T03:46:35.625Z,85.68
2018-03-22T03:49:03.149Z,85.61
2018-03-22T03:51:30.672Z,85.54
2018-03-22T03:53:58.234Z,85.42
2018-03-22T03:56:25.772Z,85.32
2018-03-22T03:58:53.311Z,85.13
2018-03-22T04:01:20.901Z,85.03
2018-03-22T04:03:48.424Z,84.95
2018-03-22T04:06:15.989Z,84.71
2018-03-22T04:08:43.504Z,83.96
2018-03-22T04:11:11.072Z,82.88
2018-03-22T04:13:38.681Z,80.80
2018-03-22T04:16:18.165Z,79.03
2018-03-22T04:18:45.731Z,77.35
2018-03-22T04:21:13.253Z,76.70
2018-03-22T04:23:40.756Z,76.37
2018-03-22T04:26:08.279Z,75.34
2018-03-22T04:28:35.832Z,75.06
2018-03-22T04:31:04.138Z,74.90
2018-03-22T04:33:31.814Z,74.48
2018-03-22T04:35:59.364Z,73.56
2018-03-22T04:38:26.916Z,73.46
2018-03-22T04:40:54.456Z,73.28
2018-03-22T04:43:21.985Z,73.11
2018-03-22T04:45:49.517Z,73.07
2018-03-22T04:48:17.070Z,72.58
2018-03-22T04:50:44.628Z,72.20
2018-03-22T04:53:12.286Z,71.70
2018-03-22T04:55:39.801Z,72.01
2018-03-22T04:58:07.334Z,72.26
2018-03-22T05:00:34.865Z,72.67
2018-03-22T05:03:02.459Z,73.02
2018-03-22T05:05:30.073Z,73.16
2018-03-22T05:07:57.627Z,73.32
2018-03-22T05:10:25.204Z,73.40
2018-03-22T05:12:52.716Z,73.64
2018-03-22T05:15:20.415Z,73.56
2018-03-22T05:17:47.935Z,73.33
2018-03-22T05:20:15.477Z,73.47
2018-03-22T05:22:43.037Z,73.25
2018-03-22T05:25:10.617Z,73.21
2018-03-22T05:27:38.164Z,73.43
2018-03-22T05:30:05.704Z,73.09
2018-03-22T05:32:33.218Z,72.74
2018-03-22T05:35:00.717Z,70.39
2018-03-22T05:37:28.261Z,69.98
2018-03-22T05:39:55.960Z,69.94
2018-03-22T05:42:23.586Z,70.39
2018-03-22T05:44:51.125Z,70.43
2018-03-22T05:47:18.673Z,70.39
2018-03-22T05:49:46.204Z,70.03
2018-03-22T05:52:13.733Z,70.40
2018-03-22T05:54:41.285Z,70.82
2018-03-22T05:57:08.922Z,70.17
2018-03-22T05:59:36.476Z,69.66
2018-03-22T06:02:04.077Z,68.90
2018-03-22T06:04:31.634Z,67.48
2018-03-22T06:06:59.173Z,66.77
2018-03-22T06:09:26.697Z,66.01
2018-03-22T06:11:54.348Z,66.47
2018-03-22T06:14:21.894Z,66.87
2018-03-22T06:16:50.424Z,67.35
2018-03-22T06:19:18.033Z,67.71
2018-03-22T06:21:45.572Z,68.05
2018-03-22T06:24:13.109Z,68.41
2018-03-22T06:26:40.629Z,68.72
2018-03-22T06:29:08.175Z,68.95
2018-03-22T06:31:35.849Z,69.19
2018-03-22T06:34:04.027Z,69.45
2018-03-22T06:36:31.894Z,69.74
2018-03-22T06:38:59.461Z,70.09
2018-03-22T06:41:26.985Z,70.67
2018-03-22T06:43:54.509Z,70.96
2018-03-22T06:46:22.061Z,71.36
2018-03-22T06:48:49.633Z,71.36
2018-03-22T06:51:17.173Z,71.41
2018-03-22T06:53:44.719Z,71.48
2018-03-22T06:56:12.249Z,71.36
2018-03-22T06:58:39.753Z,71.30
2018-03-22T07:01:07.309Z,71.39
2018-03-22T07:03:34.860Z,71.19
2018-03-22T07:06:03.211Z,71.13
2018-03-22T07:08:30.762Z,71.29
2018-03-22T07:10:58.322Z,71.46
2018-03-22T07:13:25.900Z,71.59
2018-03-22T07:15:53.425Z,71.75
2018-03-22T07:18:20.966Z,71.94
2018-03-22T07:20:48.532Z,72.00
2018-03-22T07:23:16.098Z,72.27
2018-03-22T07:25:44.875Z,72.10
2018-03-22T07:28:13.302Z,71.61
2018-03-22T07:30:40.844Z,70.72
2018-03-22T07:33:08.361Z,69.82
2018-03-22T07:35:35.896Z,68.09
2018-03-22T07:38:03.447Z,67.54
2018-03-22T07:40:30.999Z,67.97
2018-03-22T07:43:04.210Z,68.63
2018-03-22T07:45:33.598Z,69.13
2018-03-22T07:48:01.116Z,69.41
2018-03-22T07:50:28.632Z,69.64
2018-03-22T07:52:56.143Z,69.89
2018-03-22T07:55:23.745Z,70.07
2018-03-22T07:57:51.333Z,69.75
2018-03-22T08:00:18.953Z,69.70
2018-03-22T08:02:46.513Z,69.86
2018-03-22T08:05:14.957Z,70.10
2018-03-22T08:07:42.485Z,70.08
2018-03-22T08:10:10.022Z,70.19
2018-03-22T08:12:37.648Z,70.54
2018-03-22T08:15:06.301Z,70.78
2018-03-22T08:17:34.702Z,70.88
2018-03-22T08:22:56.253Z,71.12
2018-03-22T08:25:23.789Z,71.21
2018-03-22T08:27:51.308Z,71.16
2018-03-22T08:30:18.885Z,71.35
2018-03-22T08:32:52.304Z,71.28
2018-03-22T08:35:22.489Z,71.26
2018-03-22T08:37:50.026Z,70.50
2018-03-22T08:40:17.635Z,69.70
2018-03-22T08:42:45.179Z,69.16
2018-03-22T08:45:12.724Z,68.76
2018-03-22T08:47:40.308Z,68.56
2018-03-22T08:50:07.881Z,68.91
2018-03-22T08:52:35.449Z,68.90
2018-03-22T08:55:03.080Z,69.15
2018-03-22T08:57:30.600Z,69.12
2018-03-22T08:59:58.104Z,69.29
2018-03-22T09:02:25.656Z,69.30
2018-03-22T09:04:53.204Z,69.63
2018-03-22T09:07:20.757Z,70.07
2018-03-22T09:09:48.365Z,70.42
2018-03-22T09:12:15.861Z,70.59
2018-03-22T09:14:43.418Z,70.64
2018-03-22T09:17:10.930Z,70.86
2018-03-22T09:19:38.447Z,71.05
2018-03-22T09:22:06.005Z,71.12
2018-03-22T09:24:34.429Z,71.03
2018-03-22T09:27:05.875Z,70.93
2018-03-22T09:29:33.998Z,70.71
2018-03-22T09:32:01.524Z,70.63
2018-03-22T09:34:29.026Z,70.55
2018-03-22T09:36:57.308Z,70.42
2018-03-22T09:39:24.900Z,70.40
2018-03-22T09:41:52.659Z,70.31
2018-03-22T09:44:20.185Z,70.42
2018-03-22T09:46:47.745Z,70.41
2018-03-22T09:49:15.266Z,70.37
2018-03-22T09:51:42.797Z,70.43
2018-03-22T09:54:10.310Z,70.56
2018-03-22T09:56:37.951Z,70.69
2018-03-22T09:59:05.493Z,70.75
2018-03-22T10:01:33.086Z,70.78
2018-03-22T10:04:01.574Z,70.88
2018-03-22T10:06:29.081Z,71.03
2018-03-22T10:08:56.641Z,71.12
2018-03-22T10:11:24.174Z,71.14
2018-03-22T10:13:51.789Z,71.07
2018-03-22T10:16:19.376Z,71.07
2018-03-22T10:18:46.933Z,71.19
2018-03-22T10:21:14.493Z,71.31
2018-03-22T10:23:42.671Z,71.41
2018-03-22T10:26:10.195Z,71.43
2018-03-22T10:28:37.724Z,71.51
2018-03-22T10:31:05.288Z,70.72
2018-03-22T10:33:32.849Z,69.33
2018-03-22T10:36:00.365Z,67.65
2018-03-22T10:38:27.916Z,67.70
2018-03-22T10:40:55.433Z,67.20
2018-03-22T10:43:22.948Z,66.29
2018-03-22T10:45:50.473Z,65.78
2018-03-22T10:48:18.100Z,65.80
2018-03-22T10:50:45.666Z,65.71
2018-03-22T10:53:13.240Z,65.54
2018-03-22T10:55:41.577Z,65.88
2018-03-22T10:58:09.101Z,66.22
2018-03-22T11:00:38.486Z,65.73
2018-03-22T11:03:11.448Z,66.04
2018-03-22T11:05:39.062Z,66.74
2018-03-22T11:08:06.629Z,67.43
2018-03-22T11:10:34.185Z,67.50
2018-03-22T11:13:02.444Z,67.39
2018-03-22T11:15:29.957Z,67.52
2018-03-22T11:17:57.486Z,67.60
2018-03-22T11:20:25.015Z,67.65
2018-03-22T11:22:52.537Z,67.24
2018-03-22T11:25:20.505Z,65.27
2018-03-22T11:27:48.083Z,63.95
2018-03-22T11:30:15.614Z,64.21
2018-03-22T11:32:43.144Z,64.32
2018-03-22T11:35:10.644Z,63.82
2018-03-22T11:37:38.161Z,64.25
2018-03-22T11:40:07.496Z,62.56
2018-03-22T11:42:54.504Z,62.77
2018-03-22T11:45:30.441Z,63.39
2018-03-22T11:48:00.808Z,63.03
2018-03-22T11:50:28.288Z,63.07
2018-03-22T11:52:55.829Z,63.24
2018-03-22T11:55:23.340Z,63.19
2018-03-22T11:57:50.905Z,63.85
2018-03-22T12:00:22.217Z,63.92
2018-03-22T12:06:00.548Z,64.40
2018-03-22T12:08:28.080Z,64.25
2018-03-22T12:10:55.588Z,64.41
2018-03-22T12:13:23.132Z,64.43
2018-03-22T12:15:50.701Z,64.50
2018-03-22T12:18:29.867Z,63.96
2018-03-22T12:20:59.993Z,63.69
2018-03-22T12:23:27.534Z,63.91
2018-03-22T12:25:55.072Z,63.67
2018-03-22T12:28:22.616Z,63.57
2018-03-22T12:30:50.152Z,62.75
2018-03-22T12:33:17.741Z,62.77
2018-03-22T12:38:37.654Z,61.49
2018-03-22T12:41:05.181Z,61.57
2018-03-22T12:43:32.773Z,62.01
2018-03-22T12:46:00.277Z,62.00
2018-03-22T12:48:27.800Z,61.87
2018-03-22T12:50:55.365Z,61.44
2018-03-22T12:53:22.965Z,61.37
2018-03-22T12:55:50.489Z,61.64
2018-03-22T12:58:17.984Z,61.56
2018-03-22T13:00:45.507Z,61.13
2018-03-22T13:03:13.000Z,61.61
2018-03-22T13:05:40.601Z,61.17
2018-03-22T13:10:41.666Z,61.50
2018-03-22T13:13:09.209Z,61.32
2018-03-22T13:15:36.747Z,61.81
2018-03-22T13:18:04.248Z,61.47
2018-03-22T13:20:31.777Z,61.97
2018-03-22T13:22:59.332Z,62.72
2018-03-22T13:25:34.658Z,62.98
2018-03-22T13:28:02.221Z,63.15
2018-03-22T13:30:29.777Z,63.24
2018-03-22T13:32:57.296Z,63.21
2018-03-22T13:35:24.804Z,63.07
2018-03-22T13:37:52.325Z,62.90
2018-03-22T13:40:19.881Z,62.79
2018-03-22T13:42:47.431Z,62.69
2018-03-22T13:45:15.026Z,62.34
2018-03-22T13:52:14.109Z,61.84
2018-03-22T13:54:41.640Z,59.92
2018-03-22T13:57:09.156Z,60.65
2018-03-22T13:59:42.642Z,60.59
2018-03-22T14:02:10.185Z,61.09
2018-03-22T14:04:37.713Z,60.49
2018-03-22T14:07:05.231Z,60.48
2018-03-22T14:09:32.741Z,60.71
2018-03-22T14:12:00.285Z,60.97
2018-03-22T14:14:27.824Z,61.07
2018-03-22T14:16:55.329Z,60.15
2018-03-22T14:19:22.880Z,60.98
2018-03-22T14:21:50.656Z,61.40
2018-03-22T14:24:18.234Z,60.89
2018-03-22T14:26:45.753Z,60.72
2018-03-22T14:29:13.278Z,61.51
2018-03-22T14:31:40.817Z,62.14
2018-03-22T14:34:08.393Z,62.46
2018-03-22T14:36:37.169Z,62.86
2018-03-22T14:39:04.769Z,62.99
2018-03-22T14:41:32.265Z,63.84
2018-03-22T14:43:59.800Z,64.26
2018-03-22T14:46:27.310Z,64.35
2018-03-22T14:48:54.881Z,64.19
2018-03-22T14:51:26.210Z,64.29
2018-03-22T14:53:53.769Z,64.27
2018-03-22T14:56:21.353Z,64.11
2018-03-22T14:58:48.872Z,64.00
2018-03-22T15:01:16.406Z,64.00
2018-03-22T15:03:43.938Z,63.95
2018-03-22T15:06:12.398Z,63.95
2018-03-22T15:08:40.005Z,63.83
2018-03-22T15:11:07.630Z,63.87
2018-03-22T15:13:38.180Z,63.70
2018-03-22T15:16:06.786Z,63.66
2018-03-22T15:18:34.285Z,63.62
2018-03-22T15:21:01.816Z,63.72
2018-03-22T15:23:29.349Z,63.60
2018-03-22T15:25:56.909Z,63.54
2018-03-22T15:28:24.533Z,63.72
2018-03-22T15:30:52.058Z,63.90
2018-03-22T15:33:19.795Z,64.04
2018-03-22T15:35:47.316Z,64.11
2018-03-22T15:38:14.852Z,64.25
2018-03-22T15:40:42.368Z,64.38
2018-03-22T15:46:15.852Z,64.47
2018-03-22T15:48:45.513Z,64.78
2018-03-22T15:51:13.031Z,64.85
2018-03-22T15:53:40.563Z,64.89
2018-03-22T15:56:08.084Z,65.19
2018-03-22T15:58:36.307Z,65.42
2018-03-22T16:01:04.685Z,65.44
2018-03-22T16:03:32.313Z,65.60
2018-03-22T16:06:00.061Z,65.81
2018-03-22T16:08:27.616Z,65.86
2018-03-22T16:10:55.117Z,66.08
2018-03-22T16:13:22.638Z,66.22
2018-03-22T16:15:50.172Z,66.38
2018-03-22T16:18:17.701Z,66.64
2018-03-22T16:20:45.245Z,66.79
2018-03-22T16:23:12.830Z,66.87
2018-03-22T16:25:40.400Z,67.07
2018-03-22T16:28:07.928Z,67.10
2018-03-22T16:30:35.464Z,67.20
2018-03-22T16:33:03.005Z,67.39
2018-03-22T16:35:30.554Z,67.51
2018-03-22T16:37:58.145Z,67.62
2018-03-22T16:40:25.655Z,67.66
2018-03-22T16:42:53.178Z,67.74
2018-03-22T16:45:20.758Z,67.72
2018-03-22T16:47:48.226Z,67.95
2018-03-22T16:50:16.276Z,68.00
2018-03-22T16:52:44.686Z,68.14
2018-03-22T16:55:12.211Z,68.21
2018-03-22T16:57:40.860Z,68.40
2018-03-22T17:00:08.410Z,68.53
2018-03-22T17:02:35.920Z,68.78
2018-03-22T17:05:03.481Z,68.82
2018-03-22T17:07:31.072Z,68.95
2018-03-22T17:09:58.605Z,69.18
2018-03-22T17:12:26.153Z,69.18
2018-03-22T17:14:53.708Z,69.30
2018-03-22T17:17:21.246Z,69.41
2018-03-22T17:19:48.784Z,69.45
2018-03-22T17:22:16.368Z,69.46
2018-03-22T17:24:43.984Z,69.44
2018-03-22T17:27:11.569Z,69.38
2018-03-22T17:29:39.150Z,69.33
2018-03-22T17:32:06.777Z,69.38
2018-03-22T17:34:34.344Z,69.45
2018-03-22T17:37:01.857Z,69.59
2018-03-22T17:39:29.395Z,69.58
2018-03-22T17:41:56.936Z,69.63
2018-03-22T17:44:24.473Z,69.64
2018-03-22T17:46:52.066Z,69.55
2018-03-22T17:49:19.654Z,69.57
2018-03-22T17:54:20.361Z,69.81
2018-03-22T17:56:47.908Z,69.99
2018-03-22T17:59:15.981Z,70.19
2018-03-22T18:01:43.509Z,70.19
2018-03-22T18:04:11.069Z,70.37
2018-03-22T18:06:38.634Z,70.56
2018-03-22T18:09:06.280Z,70.94
2018-03-22T18:11:33.866Z,71.19
2018-03-22T18:14:01.374Z,71.48
2018-03-22T18:16:28.925Z,72.18
2018-03-22T18:18:56.539Z,72.27
2018-03-22T18:21:24.085Z,72.45
2018-03-22T18:26:32.173Z,72.69
2018-03-22T18:28:59.693Z,72.84
2018-03-22T18:31:27.286Z,72.80
2018-03-22T18:33:54.845Z,72.94
2018-03-22T18:36:22.410Z,73.26
2018-03-22T18:38:50.008Z,73.40
2018-03-22T18:43:59.688Z,73.47
2018-03-22T18:46:27.240Z,73.67
2018-03-22T18:48:54.774Z,74.01
2018-03-22T18:51:22.326Z,74.10
2018-03-22T18:53:56.512Z,74.12
2018-03-22T18:56:24.134Z,74.27
2018-03-22T18:58:51.772Z,74.33
2018-03-22T19:01:19.284Z,74.28
2018-03-22T19:03:46.838Z,74.43
2018-03-22T19:06:14.349Z,74.56
2018-03-22T19:08:41.931Z,74.68
2018-03-22T19:11:09.555Z,75.11
2018-03-22T19:13:37.081Z,75.43
2018-03-22T19:16:07.521Z,75.80
2018-03-22T19:18:35.060Z,76.16
2018-03-22T19:21:02.602Z,76.69
2018-03-22T19:23:30.140Z,76.91
2018-03-22T19:25:57.690Z,77.01
2018-03-22T19:28:25.264Z,77.42
2018-03-22T19:30:52.833Z,77.29
2018-03-22T19:33:41.174Z,77.67
2018-03-22T19:36:08.681Z,78.06
2018-03-22T19:38:36.232Z,78.14
2018-03-22T19:41:03.780Z,78.71
2018-03-22T19:43:31.340Z,78.68
2018-03-22T19:46:07.972Z,79.06
2018-03-22T19:53:52.932Z,79.64
2018-03-22T19:56:20.488Z,79.67
2018-03-22T19:58:48.006Z,79.85
2018-03-22T20:01:15.603Z,79.65
2018-03-22T20:03:43.166Z,80.19
2018-03-22T20:06:10.772Z,80.67
2018-03-22T20:08:38.309Z,80.72
2018-03-22T20:11:05.835Z,81.35
2018-03-22T20:13:33.381Z,81.18
2018-03-22T20:16:00.893Z,81.76
2018-03-22T20:18:34.185Z,81.73
2018-03-22T20:21:01.790Z,81.98
2018-03-22T20:23:29.377Z,81.93
2018-03-22T20:25:56.925Z,82.51
2018-03-22T20:28:24.433Z,82.55
2018-03-22T20:30:51.952Z,82.95
2018-03-22T20:33:19.494Z,83.09
2018-03-22T20:44:42.099Z,84.03
2018-03-22T20:47:09.646Z,84.05
2018-03-22T20:49:37.164Z,83.87
2018-03-22T20:52:04.721Z,84.01
2018-03-22T20:54:32.397Z,84.34
2018-03-22T20:57:06.686Z,84.65
2018-03-22T20:59:34.328Z,85.09
2018-03-22T21:02:09.180Z,85.07
2018-03-22T21:04:36.716Z,84.88
2018-03-22T21:07:04.256Z,85.04
2018-03-22T21:09:31.870Z,85.18
2018-03-22T21:11:59.393Z,85.23
2018-03-22T21:14:26.935Z,85.35
2018-03-22T21:16:55.435Z,85.42
2018-03-22T21:19:22.945Z,85.61
2018-03-22T21:21:50.478Z,85.69
2018-03-22T21:24:17.995Z,85.75
2018-03-22T21:26:45.600Z,85.69
2018-03-22T21:29:15.382Z,85.86
2018-03-22T23:18:17.697Z,89.28
2018-03-22T23:20:48.137Z,89.27
2018-03-22T23:23:15.632Z,89.33
2018-03-22T23:25:43.215Z,89.46
2018-03-22T23:28:10.692Z,89.45
2018-03-22T23:36:16.471Z,89.97
2018-03-22T23:38:59.045Z,90.17
2018-03-22T23:41:26.553Z,90.28
2018-03-22T23:43:54.101Z,90.38
2018-03-22T23:46:21.629Z,90.45
2018-03-22T23:48:50.907Z,90.58
2018-03-22T23:55:56.836Z,90.72
2018-03-22T23:58:24.368Z,90.75
